Time;durP1;ratioP1;P1;durP2;ratioP2;P2;SDS_P1;SDS_P2;PMS_P1;PMS_P2;Temp;Humidity;BMP_temperature;BMP_pressure;BME280_temperature;BME280_humidity;BME280_pressure;Samples;Min_cycle;Max_cycle;Signal;HPM_P1;HPM_P2
2021/03/06 00:01:03;;;;;;;28.70;17.40;;;;;;;2.96;68.47;103004.47;4841111;29;20407;-48
2021/03/06 00:03:30;;;;;;;25.95;16.02;;;;;;;2.96;68.50;102994.34;4841760;29;20050;-50
2021/03/06 00:05:57;;;;;;;26.90;15.30;;;;;;;2.94;68.14;102996.47;4868375;29;20056;-49
2021/03/06 00:08:24;;;;;;;28.70;15.90;;;;;;;2.95;68.39;102991.84;4857843;29;20476;-50
2021/03/06 00:10:54;;;;;;;32.22;15.98;;;;;;;3.02;68.26;102998.84;4876232;29;20041;-50
2021/03/06 00:13:21;;;;;;;28.13;15.07;;;;;;;3.04;68.02;103002.16;4839555;29;20105;-49
2021/03/06 00:15:48;;;;;;;34.95;15.63;;;;;;;3.05;68.05;103001.13;4869258;29;20144;-51
2021/03/06 00:18:14;;;;;;;32.08;14.70;;;;;;;3.02;68.20;102998.84;4857129;29;20049;-48
2021/03/06 00:20:40;;;;;;;22.63;13.38;;;;;;;3.00;68.10;102989.22;4858172;29;20449;-47
2021/03/06 00:23:07;;;;;;;27.90;13.07;;;;;;;3.04;68.16;102993.97;4857583;29;20065;-49
2021/03/06 00:25:35;;;;;;;22.10;13.35;;;;;;;3.11;67.94;102991.09;4858336;29;20053;-51
2021/03/06 00:28:02;;;;;;;28.92;12.70;;;;;;;3.12;68.01;102992.78;4856083;29;20461;-51
2021/03/06 00:30:28;;;;;;;30.63;13.38;;;;;;;3.16;67.92;102998.59;4859063;29;20138;-49
2021/03/06 00:32:55;;;;;;;24.45;12.75;;;;;;;3.20;67.80;102994.31;4858705;29;20042;-50
2021/03/06 00:35:21;;;;;;;26.42;13.32;;;;;;;3.23;67.68;103002.03;4858910;29;20495;-50
2021/03/06 00:37:53;;;;;;;30.60;14.50;;;;;;;3.22;67.75;102997.63;4858642;29;20146;-53
2021/03/06 00:40:20;;;;;;;24.17;14.68;;;;;;;3.23;68.69;103002.84;4859028;29;20112;-49
2021/03/06 00:42:46;;;;;;;31.48;14.93;;;;;;;3.23;68.53;103000.13;4859495;29;20053;-50
2021/03/06 00:45:13;;;;;;;34.95;16.10;;;;;;;3.23;68.44;103005.59;4859166;29;20049;-48
2021/03/06 00:47:39;;;;;;;31.42;15.32;;;;;;;3.27;68.53;103005.94;4859783;29;20073;-53
2021/03/06 00:50:12;;;;;;;31.42;14.00;;;;;;;3.32;68.23;103011.53;4859537;29;20132;-48
2021/03/06 00:52:39;;;;;;;30.77;14.77;;;;;;;3.34;67.98;103007.47;4859986;29;20120;-51
2021/03/06 00:55:06;;;;;;;27.98;13.13;;;;;;;3.31;68.36;103004.41;4859781;29;20042;-47
2021/03/06 00:57:32;;;;;;;27.90;12.82;;;;;;;3.33;68.18;102996.78;4860370;29;20086;-50
2021/03/06 00:59:58;;;;;;;18.25;11.35;;;;;;;3.38;68.12;102996.88;4859429;29;20682;-50
2021/03/06 01:02:25;;;;;;;23.27;10.68;;;;;;;3.37;67.91;102993.31;4860177;29;20057;-47
2021/03/06 01:04:51;;;;;;;20.52;10.98;;;;;;;3.36;68.37;103004.50;4875705;29;20050;-48
2021/03/06 01:07:18;;;;;;;24.85;11.88;;;;;;;3.37;68.06;102987.00;4860980;29;20097;-47
2021/03/06 01:09:44;;;;;;;24.35;10.45;;;;;;;3.36;68.38;102983.41;4862069;29;20049;-53
2021/03/06 01:12:11;;;;;;;24.60;11.13;;;;;;;3.37;68.03;102985.09;4872594;29;20049;-50
2021/03/06 01:14:37;;;;;;;16.92;9.82;;;;;;;3.40;68.08;102984.63;4859124;29;20045;-52
2021/03/06 01:17:03;;;;;;;27.83;10.95;;;;;;;3.41;68.07;102990.94;4860054;29;20089;-53
2021/03/06 01:19:30;;;;;;;20.98;10.00;;;;;;;3.39;68.13;102973.91;4859407;29;20480;-53
2021/03/06 01:21:57;;;;;;;14.20;7.80;;;;;;;3.42;68.04;102973.41;4858709;29;20511;-48
2021/03/06 01:24:34;;;;;;;21.15;9.65;;;;;;;3.46;67.68;102985.56;4858983;29;20053;-49
2021/03/06 01:27:01;;;;;;;19.55;8.18;;;;;;;3.45;67.64;102986.63;4859805;29;20056;-52
2021/03/06 01:29:28;;;;;;;21.48;8.55;;;;;;;3.40;67.75;102975.56;4859429;29;20057;-52
2021/03/06 01:31:54;;;;;;;17.00;8.15;;;;;;;3.37;68.04;102976.03;4859259;29;20108;-52
2021/03/06 01:34:21;;;;;;;22.35;8.70;;;;;;;3.42;67.71;102971.50;4842816;29;20518;-50
2021/03/06 01:36:47;;;;;;;16.13;8.57;;;;;;;3.41;67.69;102969.03;4859342;29;20037;-50
2021/03/06 01:39:15;;;;;;;19.23;8.30;;;;;;;3.42;67.74;102979.72;4859622;29;20140;-52
2021/03/06 01:41:41;;;;;;;22.48;9.30;;;;;;;3.44;67.78;102971.28;4858765;29;20072;-49
2021/03/06 01:44:07;;;;;;;18.67;9.82;;;;;;;3.51;67.80;102980.16;4858718;29;20117;-50
2021/03/06 01:46:34;;;;;;;22.63;8.82;;;;;;;3.53;67.74;102978.84;4859377;29;20050;-55
2021/03/06 01:49:01;;;;;;;19.60;8.95;;;;;;;3.54;67.71;102974.22;4858972;29;20102;-50
2021/03/06 01:51:28;;;;;;;22.90;9.20;;;;;;;3.55;67.66;102967.63;4858001;29;20041;-50
2021/03/06 01:53:54;;;;;;;23.90;8.70;;;;;;;3.52;68.17;102959.94;4858459;29;20181;-50
2021/03/06 01:56:21;;;;;;;17.30;8.40;;;;;;;3.51;67.92;102963.75;4859082;29;20049;-50
2021/03/06 01:58:47;;;;;;;23.75;9.88;;;;;;;3.53;67.98;102965.16;4858788;29;20512;-50
2021/03/06 02:01:14;;;;;;;17.77;8.68;;;;;;;3.51;68.33;102963.75;4858465;29;20053;-53
2021/03/06 02:03:40;;;;;;;21.88;9.27;;;;;;;3.51;68.06;102961.00;4858889;29;20670;-54
2021/03/06 02:06:07;;;;;;;19.83;10.48;;;;;;;3.53;67.84;102958.84;4870949;29;20061;-51
2021/03/06 02:08:33;;;;;;;21.77;9.48;;;;;;;3.50;68.01;102949.22;4871968;29;20049;-48
2021/03/06 02:11:00;;;;;;;20.67;8.30;;;;;;;3.51;67.97;102948.16;4864664;29;20507;-49
2021/03/06 02:13:37;;;;;;;20.67;8.80;;;;;;;3.52;68.28;102943.50;4858633;29;20045;-49
2021/03/06 02:16:28;;;;;;;21.65;8.32;;;;;;;3.56;68.05;102941.94;4858459;29;20041;-50
2021/03/06 02:19:05;;;;;;;21.48;9.35;;;;;;;3.56;67.93;102926.34;4859300;29;20133;-52
2021/03/06 02:21:38;;;;;;;20.63;8.70;;;;;;;3.56;68.02;102933.72;4859036;29;20045;-51
2021/03/06 02:24:10;;;;;;;11.48;7.55;;;;;;;3.59;68.15;102916.78;4858819;29;20106;-52
2021/03/06 02:27:01;;;;;;;16.42;8.07;;;;;;;3.61;68.47;102920.13;4858979;29;20050;-49
2021/03/06 02:29:49;;;;;;;19.55;7.78;;;;;;;3.63;68.08;102928.91;4872950;29;20068;-47
2021/03/06 02:32:27;;;;;;;17.10;6.78;;;;;;;3.65;68.36;102918.56;4839618;29;20057;-49
2021/03/06 02:35:13;;;;;;;20.48;7.07;;;;;;;3.66;68.30;102920.19;4840783;29;20099;-50
2021/03/06 02:37:47;;;;;;;22.98;8.52;;;;;;;3.70;68.45;102918.66;4867914;29;20129;-50
2021/03/06 02:40:15;;;;;;;16.25;8.02;;;;;;;3.71;68.40;102914.00;4858620;29;20073;-54
2021/03/06 02:42:43;;;;;;;15.80;8.23;;;;;;;3.69;68.40;102911.50;4858736;29;20068;-52
2021/03/06 02:45:11;;;;;;;12.88;6.95;;;;;;;3.67;68.75;102913.66;4858516;29;20066;-48
2021/03/06 02:47:38;;;;;;;15.00;8.38;;;;;;;3.72;68.78;102916.47;4858461;29;20456;-53
2021/03/06 02:50:08;;;;;;;12.07;7.28;;;;;;;3.76;68.53;102923.13;4858495;29;20110;-49
2021/03/06 02:52:35;;;;;;;15.77;7.63;;;;;;;3.74;68.21;102906.09;4858598;29;20049;-48
2021/03/06 02:55:04;;;;;;;13.65;7.50;;;;;;;3.73;68.41;102911.84;4858557;29;20065;-52
2021/03/06 02:57:51;;;;;;;20.77;9.05;;;;;;;3.70;68.86;102899.47;4858701;29;20102;-48
2021/03/06 03:00:27;;;;;;;10.98;7.65;;;;;;;3.75;68.87;102905.03;4856219;29;20049;-51
2021/03/06 03:02:56;;;;;;;16.77;8.02;;;;;;;3.80;68.73;102896.06;4871162;29;20057;-49
2021/03/06 03:05:41;;;;;;;17.05;7.93;;;;;;;3.78;68.47;102900.97;4862958;29;20141;-51
2021/03/06 03:08:11;;;;;;;17.50;7.10;;;;;;;3.78;68.54;102890.84;4862322;29;20049;-49
2021/03/06 03:10:42;;;;;;;14.80;7.72;;;;;;;3.76;68.58;102889.44;4871529;29;20061;-51
2021/03/06 03:13:15;;;;;;;19.88;8.60;;;;;;;3.75;68.82;102883.13;4874256;29;20050;-49
2021/03/06 03:15:45;;;;;;;;;;;;;;;3.68;69.18;102891.47;4862203;29;20042;-48
2021/03/06 03:18:24;;;;;;;20.35;10.27;;;;;;;3.67;69.28;102892.59;4845077;29;19928;-49
2021/03/06 03:20:54;;;;;;;12.77;7.80;;;;;;;3.66;69.29;102890.91;4862073;29;20073;-49
2021/03/06 03:23:36;;;;;;;20.30;8.80;;;;;;;3.69;69.35;102895.06;4861076;29;20046;-50
2021/03/06 03:26:06;;;;;;;14.55;8.18;;;;;;;3.73;69.34;102898.97;4861871;29;20049;-48
2021/03/06 03:28:35;;;;;;;18.85;9.13;;;;;;;3.72;69.34;102897.31;4861910;29;20098;-48
2021/03/06 03:31:03;;;;;;;20.08;9.50;;;;;;;3.70;69.38;102891.25;4875047;29;20572;-48
2021/03/06 03:33:33;;;;;;;17.02;8.50;;;;;;;3.72;69.50;102894.56;4861134;29;20041;-49
2021/03/06 03:36:02;;;;;;;22.13;8.77;;;;;;;3.72;69.60;102889.09;4862158;29;20046;-49
2021/03/06 03:38:29;;;;;;;17.95;8.00;;;;;;;3.72;68.98;102886.34;4861447;29;20049;-49
2021/03/06 03:40:58;;;;;;;19.35;8.45;;;;;;;3.73;69.54;102895.41;4860639;29;20053;-49
2021/03/06 03:43:27;;;;;;;23.20;9.70;;;;;;;3.73;69.44;102896.25;4861357;29;20046;-49
2021/03/06 03:45:55;;;;;;;17.98;9.00;;;;;;;3.74;69.19;102881.44;4860994;29;20052;-49
2021/03/06 03:48:22;;;;;;;20.80;9.50;;;;;;;3.73;69.22;102885.28;4861434;29;20053;-51
2021/03/06 03:50:49;;;;;;;21.58;9.68;;;;;;;3.73;69.55;102896.25;4861422;29;20135;-48
2021/03/06 03:53:18;;;;;;;24.55;9.82;;;;;;;3.72;69.79;102894.56;4844647;29;20045;-51
2021/03/06 03:55:44;;;;;;;22.88;11.07;;;;;;;3.73;69.44;102896.25;4861124;29;20044;-50
2021/03/06 03:58:11;;;;;;;18.88;9.32;;;;;;;3.69;69.48;102895.06;4860661;29;20054;-48
2021/03/06 04:00:38;;;;;;;20.80;10.23;;;;;;;3.69;69.68;102901.38;4841916;29;20105;-48
2021/03/06 04:03:05;;;;;;;16.38;9.55;;;;;;;3.71;69.79;102901.13;4842455;29;20050;-53
2021/03/06 04:05:33;;;;;;;26.65;11.13;;;;;;;3.71;69.63;102898.38;4849959;29;20073;-51
2021/03/06 04:07:59;;;;;;;17.77;10.63;;;;;;;3.73;69.84;102895.41;4841836;29;20404;-50
2021/03/06 04:10:27;;;;;;;17.90;9.02;;;;;;;3.71;69.71;102890.16;4850747;29;20041;-51
2021/03/06 04:12:55;;;;;;;20.42;9.98;;;;;;;3.70;70.03;102883.03;4857403;29;20046;-51
2021/03/06 04:15:23;;;;;;;19.38;10.77;;;;;;;3.68;69.94;102898.88;4825594;29;20088;-51
2021/03/06 04:17:51;;;;;;;25.88;10.70;;;;;;;3.74;69.84;102894.31;4842125;29;20118;-49
2021/03/06 04:20:21;;;;;;;16.08;10.15;;;;;;;3.74;69.80;102897.03;4842624;29;20057;-49
2021/03/06 04:22:48;;;;;;;20.92;10.73;;;;;;;3.72;69.92;102894.56;4842414;29;20475;-50
2021/03/06 04:25:16;;;;;;;19.23;11.32;;;;;;;3.73;70.13;102888.03;4842215;29;20568;-48
2021/03/06 04:27:44;;;;;;;23.70;11.18;;;;;;;3.71;69.85;102876.47;4842154;29;20693;-50
2021/03/06 04:30:11;;;;;;;21.90;11.98;;;;;;;3.71;70.03;102892.91;4841486;29;20046;-50
2021/03/06 04:32:41;;;;;;;25.02;11.00;;;;;;;3.73;70.32;102896.25;4842166;29;20046;-50
2021/03/06 04:35:08;;;;;;;19.02;10.82;;;;;;;3.71;70.07;102898.38;4842549;29;20060;-49
2021/03/06 04:37:35;;;;;;;22.42;11.32;;;;;;;3.66;70.21;102890.91;4842135;29;20571;-52
2021/03/06 04:40:12;;;;;;;23.42;11.93;;;;;;;3.71;70.24;102897.56;4841890;29;20058;-47
2021/03/06 04:42:38;;;;;;;22.27;12.10;;;;;;;3.71;70.28;102884.69;4842098;29;20125;-48
2021/03/06 04:45:06;;;;;;;19.00;10.63;;;;;;;3.71;70.27;102903.06;4841284;29;20038;-52
2021/03/06 04:47:32;;;;;;;26.40;11.55;;;;;;;3.71;70.21;102903.06;4841542;29;20128;-52
2021/03/06 04:49:59;;;;;;;28.90;12.20;;;;;;;3.74;70.56;102905.28;4840408;29;20125;-50
2021/03/06 04:52:25;;;;;;;28.05;13.10;;;;;;;3.71;70.52;102898.38;4841769;29;20052;-47
2021/03/06 04:54:54;;;;;;;23.38;12.25;;;;;;;3.68;70.83;102904.34;4841521;29;20381;-50
2021/03/06 04:57:20;;;;;;;30.15;13.90;;;;;;;3.68;71.02;102901.59;4841812;29;20083;-50
2021/03/06 04:59:48;;;;;;;26.02;13.32;;;;;;;3.70;70.61;102913.16;4824676;29;20057;-51
2021/03/06 05:02:14;;;;;;;27.75;12.68;;;;;;;3.68;70.86;102915.28;4841400;29;20504;-52
2021/03/06 05:04:42;;;;;;;22.63;11.70;;;;;;;3.65;70.70;102911.16;4843181;29;20118;-48
2021/03/06 05:07:08;;;;;;;22.08;11.80;;;;;;;3.66;70.64;102918.28;4853189;29;20158;-50
2021/03/06 05:09:34;;;;;;;22.38;12.38;;;;;;;3.69;70.69;102925.19;4842851;29;20060;-51
2021/03/06 05:12:00;;;;;;;27.80;12.77;;;;;;;3.69;70.64;102916.97;4852611;29;20049;-49
2021/03/06 05:14:27;;;;;;;21.35;11.63;;;;;;;3.62;70.07;102921.78;4841739;29;20068;-52
2021/03/06 05:16:53;;;;;;;18.48;11.30;;;;;;;3.59;70.59;102905.84;4841083;29;20409;-50
2021/03/06 05:19:20;;;;;;;25.15;11.95;;;;;;;3.55;70.90;102910.97;4841427;29;20398;-50
2021/03/06 05:21:46;;;;;;;23.98;12.23;;;;;;;3.58;70.81;102912.38;4841396;29;20038;-51
2021/03/06 05:24:12;;;;;;;27.65;16.55;;;;;;;3.57;70.18;102903.31;4824987;29;20406;-50
2021/03/06 05:26:39;;;;;;;25.10;14.18;;;;;;;3.52;70.28;102900.50;4840699;29;20560;-48
2021/03/06 05:29:05;;;;;;;26.95;14.68;;;;;;;3.53;70.29;102904.06;4841297;29;20103;-51
2021/03/06 05:31:31;;;;;;;33.85;13.18;;;;;;;3.52;70.65;102905.16;4840929;29;20045;-47
2021/03/06 05:33:58;;;;;;;26.00;12.65;;;;;;;3.53;70.25;102906.81;4841083;29;20073;-50
2021/03/06 05:36:24;;;;;;;28.20;14.65;;;;;;;3.54;70.18;102905.75;4840935;29;20078;-52
2021/03/06 05:38:51;;;;;;;24.98;13.68;;;;;;;3.53;70.54;102906.81;4846934;29;20484;-50
2021/03/06 05:41:20;;;;;;;32.75;15.43;;;;;;;3.52;70.19;102913.38;4840992;29;20049;-50
2021/03/06 05:43:49;;;;;;;28.52;13.65;;;;;;;3.50;70.58;102910.03;4824782;29;20050;-50
2021/03/06 05:46:15;;;;;;;28.15;14.35;;;;;;;3.51;70.40;102904.34;4840602;29;20090;-50
2021/03/06 05:48:42;;;;;;;27.42;14.40;;;;;;;3.48;70.54;102903.97;4825023;29;20080;-50
2021/03/06 05:51:09;;;;;;;20.38;11.70;;;;;;;3.44;70.65;102909.09;4824518;29;20050;-48
2021/03/06 05:53:39;;;;;;;28.75;14.40;;;;;;;3.42;70.94;102926.84;4841064;29;20053;-48
2021/03/06 05:56:09;;;;;;;21.90;11.50;;;;;;;3.42;70.63;102915.91;4843797;29;20221;-52
2021/03/06 05:58:37;;;;;;;22.33;10.90;;;;;;;3.40;70.48;102907.94;4843882;29;20220;-49
2021/03/06 06:01:04;;;;;;;21.73;12.27;;;;;;;3.40;70.86;102912.59;4873074;29;20053;-48
2021/03/06 06:03:31;;;;;;;23.63;11.75;;;;;;;3.39;71.03;102910.94;4858374;29;20456;-49
2021/03/06 06:05:58;;;;;;;21.98;12.38;;;;;;;3.40;70.73;102913.44;4862285;29;20105;-48
2021/03/06 06:08:27;;;;;;;29.23;13.90;;;;;;;3.41;70.40;102912.38;4859038;29;20077;-51
2021/03/06 06:10:53;;;;;;;27.20;13.27;;;;;;;3.44;70.76;102922.00;4845284;29;20080;-50
2021/03/06 06:13:19;;;;;;;35.85;14.40;;;;;;;3.47;70.66;102913.25;4858962;29;20495;-48
2021/03/06 06:15:47;;;;;;;26.58;14.25;;;;;;;3.51;70.28;102919.94;4858461;29;20098;-49
2021/03/06 06:18:15;;;;;;;33.80;13.13;;;;;;;3.48;70.26;102921.25;4858613;29;20037;-50
2021/03/06 06:20:42;;;;;;;23.95;12.90;;;;;;;3.51;70.33;102919.94;4859114;29;20052;-49
2021/03/06 06:23:17;;;;;;;23.52;10.27;;;;;;;3.49;70.72;102933.03;4859177;29;20072;-48
2021/03/06 06:25:46;;;;;;;16.58;8.45;;;;;;;3.47;70.72;102929.69;4858784;29;20049;-47
2021/03/06 06:28:17;;;;;;;20.80;8.45;;;;;;;3.52;70.25;102918.88;4858530;29;20132;-50
2021/03/06 06:31:12;;;;;;;12.73;8.18;;;;;;;3.54;70.14;102927.66;4872272;29;20038;-50
2021/03/06 06:33:41;;;;;;;14.65;8.55;;;;;;;3.54;70.25;102930.41;4858850;29;20133;-50
2021/03/06 06:36:07;;;;;;;18.13;8.55;;;;;;;3.56;70.32;102933.72;4859277;29;20137;-47
2021/03/06 06:38:44;;;;;;;12.75;7.25;;;;;;;3.55;70.41;102921.91;4845500;29;20407;-53
2021/03/06 06:41:11;;;;;;;15.23;8.80;;;;;;;3.57;70.24;102924.44;4870714;29;20518;-50
2021/03/06 06:43:37;;;;;;;17.05;7.63;;;;;;;3.58;70.33;102926.06;4862115;29;20049;-48
2021/03/06 06:46:04;;;;;;;11.27;6.90;;;;;;;3.60;70.22;102924.75;4862105;29;20133;-50
2021/03/06 06:48:30;;;;;;;15.48;7.35;;;;;;;3.61;70.24;102917.38;4845855;29;20064;-49
2021/03/06 06:51:10;;;;;;;18.23;6.70;;;;;;;3.59;70.32;102923.09;4861387;29;20101;-47
2021/03/06 06:53:37;;;;;;;14.77;8.35;;;;;;;3.63;70.03;102920.69;4861744;29;20049;-50
2021/03/06 06:56:22;;;;;;;17.13;7.30;;;;;;;3.61;69.98;102920.94;4862627;29;20057;-49
2021/03/06 06:58:49;;;;;;;20.42;8.10;;;;;;;3.64;69.63;102925.94;4845229;29;20065;-47
2021/03/06 07:01:42;;;;;;;14.65;7.82;;;;;;;3.65;69.60;102924.03;4862189;29;20057;-50
2021/03/06 07:04:09;;;;;;;18.10;7.25;;;;;;;3.68;69.41;102931.72;4859767;29;20473;-48
2021/03/06 07:06:40;;;;;;;14.80;7.30;;;;;;;3.67;69.59;102930.09;4854531;29;20500;-48
2021/03/06 07:09:10;;;;;;;15.60;7.90;;;;;;;3.68;69.48;102931.72;4862467;29;20468;-53
2021/03/06 07:11:38;;;;;;;16.45;7.85;;;;;;;3.68;69.34;102934.47;4862409;29;20132;-52
2021/03/06 07:14:06;;;;;;;15.45;8.35;;;;;;;3.70;69.16;102935.09;4843784;29;20056;-49
2021/03/06 07:16:59;;;;;;;18.05;8.02;;;;;;;3.71;69.17;102938.66;4857733;29;20094;-49
2021/03/06 07:19:30;;;;;;;17.35;8.90;;;;;;;3.72;69.25;102934.81;4841414;29;20062;-50
2021/03/06 07:22:00;;;;;;;21.60;9.75;;;;;;;3.70;68.86;102935.09;4861388;29;20041;-52
2021/03/06 07:24:28;;;;;;;20.83;9.23;;;;;;;3.71;69.15;102931.25;4843719;29;20110;-51
2021/03/06 07:26:55;;;;;;;19.08;9.38;;;;;;;3.71;68.93;102934.00;4860795;29;20042;-49
2021/03/06 07:29:26;;;;;;;17.20;8.68;;;;;;;3.73;68.99;102942.81;4861897;29;20045;-48
2021/03/06 07:31:57;;;;;;;12.43;8.27;;;;;;;3.73;69.50;102948.28;4861200;29;20114;-51
2021/03/06 07:34:26;;;;;;;12.02;6.78;;;;;;;3.74;69.05;102941.72;4861991;29;20057;-50
2021/03/06 07:37:05;;;;;;;8.93;5.85;;;;;;;3.77;69.01;102941.22;4861168;29;20077;-51
2021/03/06 07:39:43;;;;;;;14.90;6.55;;;;;;;3.82;68.84;102935.00;4861923;29;20064;-50
2021/03/06 07:42:51;;;;;;;11.43;5.95;;;;;;;3.85;68.89;102940.00;4851142;29;20086;-49
2021/03/06 07:45:23;;;;;;;14.90;6.15;;;;;;;3.86;68.96;102939.75;4860976;29;20049;-49
2021/03/06 07:48:06;;;;;;;9.43;5.80;;;;;;;3.88;68.64;102931.28;4861597;29;20076;-52
2021/03/06 07:50:37;;;;;;;16.13;6.25;;;;;;;3.91;68.88;102937.09;4860329;29;20045;-51
2021/03/06 07:53:03;;;;;;;11.52;6.22;;;;;;;3.95;68.89;102938.25;4861398;29;20132;-49
2021/03/06 07:55:32;;;;;;;11.07;6.55;;;;;;;3.98;68.94;102937.78;4861016;29;20057;-52
2021/03/06 07:58:17;;;;;;;16.33;6.38;;;;;;;4.02;69.11;102938.13;4860479;29;20049;-51
2021/03/06 08:00:50;;;;;;;10.65;7.30;;;;;;;4.03;68.81;102937.84;4861005;29;20454;-51
2021/03/06 08:03:39;;;;;;;14.18;7.00;;;;;;;4.06;68.65;102931.88;4861338;29;20048;-52
2021/03/06 08:06:17;;;;;;;11.68;5.70;;;;;;;4.10;69.01;102930.28;4862807;29;20121;-54
2021/03/06 08:08:44;;;;;;;12.98;5.53;;;;;;;4.14;68.84;102934.22;4860234;29;20133;-53
2021/03/06 08:11:20;;;;;;;10.18;5.20;;;;;;;4.20;69.08;102944.19;4862611;29;20140;-48
2021/03/06 08:13:48;;;;;;;12.70;7.20;;;;;;;4.23;68.96;102940.94;4861179;29;20146;-48
2021/03/06 08:16:21;;;;;;;15.68;7.03;;;;;;;4.30;69.16;102940.78;4860642;29;20157;-50
2021/03/06 08:18:53;;;;;;;13.38;7.13;;;;;;;4.36;69.33;102933.47;4860982;29;20544;-52
2021/03/06 08:21:33;;;;;;;10.57;6.90;;;;;;;4.41;68.97;102941.75;4860315;29;20056;-50
2021/03/06 08:27:02;;;;;;;10.38;6.32;;;;;;;4.54;68.97;102939.50;4860622;29;20053;-48
2021/03/06 08:29:53;;;;;;;12.45;4.90;;;;;;;4.59;69.32;102934.09;4864660;29;20064;-49
2021/03/06 08:32:36;;;;;;;12.93;4.82;;;;;;;4.66;68.62;102928.44;4860860;29;20049;-51
2021/03/06 08:35:19;;;;;;;11.45;4.55;;;;;;;4.71;68.85;102931.25;4860763;29;20068;-52
2021/03/06 08:37:47;;;;;;;11.43;5.43;;;;;;;4.79;68.85;102939.06;4874647;29;20118;-52
2021/03/06 08:40:24;;;;;;;11.73;4.47;;;;;;;4.85;68.45;102940.75;4860428;29;20049;-49
2021/03/06 08:42:55;;;;;;;10.98;4.43;;;;;;;4.89;68.52;102934.53;4843652;29;20106;-49
2021/03/06 08:45:29;;;;;;;10.93;4.50;;;;;;;4.92;68.34;102933.19;4859942;29;20045;-48
2021/03/06 08:48:03;;;;;;;11.65;5.60;;;;;;;4.97;68.43;102936.00;4860324;29;20523;-47
2021/03/06 08:50:32;;;;;;;16.45;6.35;;;;;;;5.02;68.30;102937.97;4860296;29;20041;-53
2021/03/06 08:53:04;;;;;;;9.65;4.90;;;;;;;5.06;67.69;102928.97;4860194;29;20113;-50
2021/03/06 08:55:38;;;;;;;10.77;6.45;;;;;;;5.12;67.40;102925.22;4860464;29;20054;-51
2021/03/06 08:58:06;;;;;;;10.82;4.35;;;;;;;5.18;67.48;102926.94;4874195;29;20134;-47
2021/03/06 09:00:36;;;;;;;12.10;4.25;;;;;;;5.23;67.12;102918.75;4858491;29;20045;-53
2021/03/06 09:03:18;;;;;;;9.68;4.35;;;;;;;5.31;66.69;102925.72;4851873;29;20050;-49
2021/03/06 09:05:55;;;;;;;;;;;;;;;5.34;65.91;102914.22;4869455;29;20045;-50
2021/03/06 09:08:23;;;;;;;7.60;3.38;;;;;;;5.38;66.72;102916.19;4878338;29;19928;-53
2021/03/06 09:10:52;;;;;;;12.45;3.78;;;;;;;5.42;66.28;102928.34;4868773;29;20057;-50
2021/03/06 09:13:21;;;;;;;7.68;3.75;;;;;;;5.45;65.77;102927.78;4859718;29;20056;-49
2021/03/06 09:15:53;;;;;;;8.60;4.10;;;;;;;5.50;65.54;102924.28;4859011;29;20053;-48
2021/03/06 09:18:22;;;;;;;8.48;4.05;;;;;;;5.52;65.46;102922.94;4859469;29;20526;-50
2021/03/06 09:20:53;;;;;;;5.93;3.40;;;;;;;5.53;64.79;102927.31;4859331;29;20046;-51
2021/03/06 09:23:36;;;;;;;4.25;2.80;;;;;;;5.60;64.41;102918.06;4859806;29;20053;-53
2021/03/06 09:26:06;;;;;;;;;;;;;;;5.64;64.28;102917.28;4874485;29;20512;-50
2021/03/06 09:28:34;;;;;;;6.35;3.10;;;;;;;5.71;65.36;102920.66;4859828;29;19971;-51
2021/03/06 09:31:26;;;;;;;7.57;3.10;;;;;;;5.75;64.10;102927.28;4858681;29;20129;-51
2021/03/06 09:33:54;;;;;;;8.60;2.65;;;;;;;5.81;64.74;102925.41;4852173;29;20416;-51
2021/03/06 09:36:22;;;;;;;5.90;2.53;;;;;;;5.87;64.79;102919.75;4859601;29;20128;-47
2021/03/06 09:38:53;;;;;;;6.07;2.95;;;;;;;5.95;64.32;102918.44;4859576;29;20128;-48
2021/03/06 09:41:24;;;;;;;6.35;3.08;;;;;;;6.01;63.74;102922.91;4859296;29;20053;-50
2021/03/06 09:43:53;;;;;;;8.90;3.22;;;;;;;6.09;64.06;102922.41;4858784;29;20377;-49
2021/03/06 09:46:25;;;;;;;6.38;3.05;;;;;;;6.11;63.73;102920.25;4859434;29;20085;-50
2021/03/06 09:49:02;;;;;;;6.30;3.72;;;;;;;6.16;63.23;102923.03;4858775;29;20080;-51
2021/03/06 09:51:42;;;;;;;11.88;3.90;;;;;;;6.20;61.65;102917.81;4858563;29;20045;-51
2021/03/06 09:54:10;;;;;;;5.50;3.20;;;;;;;6.26;63.38;102914.84;4858613;29;20048;-50
2021/03/06 09:56:49;;;;;;;5.80;3.38;;;;;;;6.35;62.48;102921.53;4857076;29;20076;-50
2021/03/06 09:59:15;;;;;;;9.38;3.47;;;;;;;6.41;62.74;102922.38;4873122;29;20136;-49
2021/03/06 10:01:42;;;;;;;6.68;3.47;;;;;;;6.44;61.99;102919.94;4859122;29;20045;-50
2021/03/06 10:04:23;;;;;;;4.35;3.25;;;;;;;6.47;60.75;102921.31;4859314;29;20049;-48
2021/03/06 10:06:51;;;;;;;13.40;3.80;;;;;;;6.54;62.23;102928.25;4876289;29;20097;-50
2021/03/06 10:09:19;;;;;;;9.70;3.60;;;;;;;6.58;61.79;102923.88;4863046;29;20137;-54
2021/03/06 10:11:48;;;;;;;7.78;3.95;;;;;;;6.60;61.18;102924.44;4862023;29;20054;-51
2021/03/06 10:14:20;;;;;;;10.82;3.30;;;;;;;6.60;60.84;102918.94;4858208;29;20519;-50
2021/03/06 10:16:52;;;;;;;11.70;4.45;;;;;;;6.55;59.86;102910.66;4859353;29;20120;-51
2021/03/06 10:19:21;;;;;;;6.97;3.28;;;;;;;6.54;60.03;102920.00;4858797;29;20053;-52
2021/03/06 10:22:07;;;;;;;6.50;3.55;;;;;;;6.54;59.58;102908.97;4859048;29;20058;-52
2021/03/06 10:25:09;;;;;;;6.82;3.92;;;;;;;6.58;59.64;102915.63;4858651;29;20572;-47
2021/03/06 10:27:39;;;;;;;;;;;;;;;6.64;59.20;102911.81;4820461;29;20042;-51
2021/03/06 10:30:27;;;;;;;9.82;4.10;;;;;;;6.70;60.14;102919.00;4851701;29;19964;-50
2021/03/06 10:33:00;;;;;;;6.47;2.88;;;;;;;6.74;60.05;102914.63;4843698;29;20038;-50
2021/03/06 10:35:33;;;;;;;11.02;3.65;;;;;;;6.78;59.24;102914.91;4858775;29;20049;-50
2021/03/06 10:38:01;;;;;;;4.25;3.05;;;;;;;6.85;60.23;102923.78;4872374;29;20045;-50
2021/03/06 10:40:44;;;;;;;8.50;3.42;;;;;;;6.90;57.82;102917.47;4858895;29;20164;-52
2021/03/06 10:43:32;;;;;;;4.55;3.35;;;;;;;6.93;58.82;102905.91;4858411;29;20166;-49
2021/03/06 10:46:18;;;;;;;5.25;3.03;;;;;;;6.95;59.29;102917.47;4852605;29;20441;-51
2021/03/06 10:49:07;;;;;;;6.55;3.13;;;;;;;6.97;58.32;102912.53;4857629;29;20057;-56
2021/03/06 10:51:52;;;;;;;7.72;4.20;;;;;;;7.01;58.73;102913.66;4858514;29;20171;-54
2021/03/06 10:54:21;;;;;;;8.40;3.35;;;;;;;7.09;59.92;102910.38;4855716;29;20449;-52
2021/03/06 10:57:02;;;;;;;8.60;4.72;;;;;;;7.17;59.61;102913.47;4856588;29;20113;-54
2021/03/06 10:59:35;;;;;;;9.63;3.53;;;;;;;7.26;58.94;102900.81;4855592;29;20105;-50
2021/03/06 11:02:03;;;;;;;7.40;4.13;;;;;;;7.35;59.52;102890.09;4854457;29;20050;-53
2021/03/06 11:04:31;;;;;;;6.82;3.47;;;;;;;7.41;59.03;102899.22;4853606;29;20113;-52
2021/03/06 11:07:01;;;;;;;6.72;3.47;;;;;;;7.42;58.88;102909.94;4854374;29;20053;-49
2021/03/06 11:09:31;;;;;;;9.25;3.35;;;;;;;7.45;58.65;102898.38;4856389;29;20101;-52
2021/03/06 11:12:27;;;;;;;5.20;3.45;;;;;;;7.47;56.53;102896.16;4875523;29;20053;-50
2021/03/06 11:15:16;;;;;;;6.65;3.22;;;;;;;7.45;57.20;102903.91;4865686;29;20457;-51
2021/03/06 11:17:47;;;;;;;6.15;3.83;;;;;;;7.47;57.81;102896.16;4863120;29;20042;-49
2021/03/06 11:20:16;;;;;;;14.20;5.65;;;;;;;7.49;57.46;102905.03;4857478;29;20053;-50
2021/03/06 11:22:43;;;;;;;5.72;3.03;;;;;;;7.51;57.43;102896.47;4855749;29;20077;-52
2021/03/06 11:25:11;;;;;;;14.13;4.15;;;;;;;7.55;57.83;102887.38;4857530;29;20110;-48
2021/03/06 11:28:08;;;;;;;7.75;3.38;;;;;;;7.62;57.41;102884.38;4860953;29;20049;-51
2021/03/06 11:30:35;;;;;;;6.97;3.63;;;;;;;7.71;57.75;102883.53;4854236;29;20062;-51
2021/03/06 11:33:05;;;;;;;11.75;3.78;;;;;;;7.78;57.77;102881.34;4858587;29;20771;-51
2021/03/06 11:35:32;;;;;;;11.23;3.75;;;;;;;7.83;57.40;102872.25;4859145;29;20129;-54
2021/03/06 11:37:59;;;;;;;5.03;3.30;;;;;;;7.87;57.38;102879.69;4843364;29;20451;-52
2021/03/06 11:40:28;;;;;;;5.40;3.03;;;;;;;7.91;57.30;102877.22;4859679;29;20412;-55
2021/03/06 11:42:55;;;;;;;8.68;3.17;;;;;;;7.91;57.14;102878.06;4859306;29;20082;-54
2021/03/06 11:45:22;;;;;;;5.55;2.97;;;;;;;7.95;57.00;102876.38;4858658;29;20077;-52